createdAt,value
2023-03-20T05:07:17.434Z,4.00
2023-03-20T05:08:17.436Z,4.00
2023-03-20T05:10:17.403Z,4.00
2023-03-20T05:11:17.392Z,4.00
2023-03-20T05:14:17.364Z,4.00
2023-03-20T05:15:17.358Z,8.00
2023-03-20T05:16:17.359Z,8.00
2023-03-20T05:17:17.334Z,8.00
2023-03-20T05:18:17.317Z,12.00
2023-03-20T05:19:17.307Z,12.00
2023-03-20T05:20:17.300Z,12.00
2023-03-20T05:21:17.304Z,16.00
2023-03-20T05:23:17.264Z,20.00
2023-03-20T05:24:17.259Z,28.00
2023-03-20T05:25:17.244Z,32.00
2023-03-20T05:26:17.280Z,36.00
2023-03-20T05:27:17.222Z,44.00
2023-03-20T05:28:17.212Z,52.00
2023-03-20T05:29:17.207Z,56.00
2023-03-20T05:30:17.191Z,68.00
2023-03-20T05:31:17.202Z,76.00
2023-03-20T05:32:17.172Z,88.00
2023-03-20T05:33:17.210Z,96.00
2023-03-20T05:34:17.149Z,108.00
2023-03-20T05:35:17.140Z,120.00
2023-03-20T05:36:17.206Z,128.00
2023-03-20T05:37:17.136Z,136.00
2023-03-20T05:38:17.107Z,148.00
2023-03-20T05:39:17.095Z,156.00
2023-03-20T05:41:17.075Z,172.00
2023-03-20T05:42:17.065Z,188.00
2023-03-20T05:43:17.060Z,200.00
2023-03-20T05:45:17.029Z,236.00
2023-03-20T05:46:17.090Z,252.00
2023-03-20T05:47:17.010Z,276.00
2023-03-20T05:48:17.001Z,292.00
2023-03-20T05:49:16.993Z,316.00
2023-03-20T05:50:16.991Z,348.00
2023-03-20T05:51:16.971Z,376.00
2023-03-20T05:52:16.960Z,412.00
2023-03-20T05:53:16.968Z,448.00
2023-03-20T05:54:16.939Z,488.00
2023-03-20T05:55:16.928Z,528.00
2023-03-20T05:56:16.921Z,568.00
2023-03-20T05:57:16.908Z,616.00
2023-03-20T05:58:16.899Z,660.00
2023-03-20T05:59:16.886Z,704.00
2023-03-20T06:00:16.879Z,744.00
2023-03-20T06:01:16.865Z,772.00
2023-03-20T06:02:16.869Z,788.00
2023-03-20T06:03:16.901Z,804.00
2023-03-20T06:04:16.837Z,820.00
2023-03-20T06:05:16.825Z,836.00
2023-03-20T06:06:16.815Z,848.00
2023-03-20T06:07:16.814Z,864.00
2023-03-20T06:08:16.793Z,884.00
2023-03-20T06:10:16.772Z,908.00
2023-03-20T06:11:16.764Z,916.00
2023-03-20T06:12:16.758Z,924.00
2023-03-20T06:13:16.741Z,936.00
2023-03-20T06:14:16.732Z,960.00
2023-03-20T06:15:16.737Z,1000.00
2023-03-20T06:16:16.767Z,1048.00
2023-03-20T06:17:16.699Z,1092.00
2023-03-20T06:18:16.701Z,1124.00
2023-03-20T06:19:16.681Z,1152.00
2023-03-20T06:20:16.670Z,1168.00
2023-03-20T06:21:16.659Z,1164.00
2023-03-20T06:23:16.636Z,1108.00
2023-03-20T06:24:16.625Z,1068.00
2023-03-20T06:25:16.634Z,1036.00
2023-03-20T06:26:16.606Z,1008.00
2023-03-20T06:27:16.592Z,1004.00
2023-03-20T06:29:16.802Z,1020.00
2023-03-20T06:30:16.602Z,1032.00
2023-03-20T06:31:16.626Z,1048.00
2023-03-20T06:32:16.539Z,1084.00
2023-03-20T06:33:16.625Z,1124.00
2023-03-20T06:34:16.515Z,1156.00
2023-03-20T06:35:16.510Z,1192.00
2023-03-20T06:36:16.499Z,1240.00
2023-03-20T06:37:16.485Z,1296.00
2023-03-20T06:38:16.479Z,1360.00
2023-03-20T06:39:16.465Z,1432.00
2023-03-20T06:40:16.455Z,1520.00
2023-03-20T06:41:27.830Z,1624.00
2023-03-20T06:44:16.415Z,1944.00
2023-03-20T06:45:16.400Z,2064.00
2023-03-20T06:46:16.443Z,2188.00
2023-03-20T06:47:16.404Z,2312.00
2023-03-20T06:48:16.370Z,2424.00
2023-03-20T06:50:16.347Z,2648.00
2023-03-20T06:51:16.337Z,2760.00
2023-03-20T06:54:16.307Z,2920.00
2023-03-20T06:55:16.297Z,2968.00
2023-03-20T06:56:16.285Z,3028.00
2023-03-20T06:57:16.297Z,3100.00
2023-03-20T06:59:16.253Z,3244.00
2023-03-20T07:00:16.244Z,3280.00
2023-03-20T07:01:16.238Z,3280.00
2023-03-20T07:02:16.233Z,3268.00
2023-03-20T07:03:16.221Z,3252.00
2023-03-20T07:04:16.206Z,3232.00
2023-03-20T07:05:16.238Z,3196.00
2023-03-20T07:06:16.185Z,3168.00
2023-03-20T07:07:16.177Z,3160.00
2023-03-20T07:08:16.173Z,3184.00
2023-03-20T07:09:16.156Z,3232.00
2023-03-20T07:10:16.143Z,3280.00
2023-03-20T07:11:16.131Z,3332.00
2023-03-20T07:12:16.143Z,3388.00
2023-03-20T07:13:16.130Z,3468.00
2023-03-20T07:14:16.107Z,3572.00
2023-03-20T07:15:16.100Z,3708.00
2023-03-20T07:16:16.101Z,3856.00
2023-03-20T07:17:16.072Z,4012.00
2023-03-20T07:19:16.051Z,4300.00
2023-03-20T07:20:16.047Z,4396.00
2023-03-20T07:21:16.031Z,4432.00
2023-03-20T07:22:16.020Z,4432.00
2023-03-20T07:23:16.008Z,4440.00
2023-03-20T07:24:16.003Z,4476.00
2023-03-20T07:25:15.991Z,4512.00
2023-03-20T07:26:15.989Z,4564.00
2023-03-20T07:27:15.965Z,4696.00
2023-03-20T07:29:15.970Z,4956.00
2023-03-20T07:30:15.935Z,5064.00
2023-03-20T07:31:15.952Z,5132.00
2023-03-20T07:32:15.915Z,5208.00
2023-03-20T07:33:15.975Z,5256.00
2023-03-20T07:34:15.894Z,5348.00
2023-03-20T07:35:15.882Z,5512.00
2023-03-20T07:36:15.873Z,5632.00
2023-03-20T07:37:15.878Z,5784.00
2023-03-20T07:39:15.838Z,6360.00
2023-03-20T07:40:15.834Z,6692.00
2023-03-20T07:41:15.818Z,7004.00
2023-03-20T07:42:15.807Z,7264.00
2023-03-20T07:43:15.797Z,7448.00
2023-03-20T07:44:15.788Z,7628.00
2023-03-20T07:45:15.792Z,7844.00
2023-03-20T07:46:15.841Z,8048.00
2023-03-20T07:47:15.753Z,8308.00
2023-03-20T07:48:15.745Z,8580.00
2023-03-20T07:50:15.717Z,9300.00
2023-03-20T07:51:15.708Z,9560.00
2023-03-20T07:52:15.704Z,9664.00
2023-03-20T07:53:15.691Z,9664.00
2023-03-20T07:54:15.678Z,9580.00
2023-03-20T07:56:15.657Z,9456.00
2023-03-20T07:57:15.644Z,9168.00
2023-03-20T07:58:15.643Z,8760.00
2023-03-20T07:59:15.622Z,8588.00
2023-03-20T08:00:15.921Z,8944.00
2023-03-20T08:02:15.593Z,9800.00
2023-03-20T08:03:15.657Z,9964.00
2023-03-20T08:04:15.653Z,10208.00
2023-03-20T08:05:15.562Z,10576.00
2023-03-20T08:06:15.546Z,11016.00
2023-03-20T08:07:15.535Z,11212.00
2023-03-20T08:08:15.529Z,11960.00
2023-03-20T08:09:15.521Z,12556.00
2023-03-20T08:10:15.508Z,13464.00
2023-03-20T08:11:15.495Z,14100.00
2023-03-20T08:12:15.493Z,14832.00
2023-03-20T08:13:15.477Z,15328.00
2023-03-20T08:14:15.476Z,16704.00
2023-03-20T08:15:15.456Z,21248.00
2023-03-20T08:16:15.515Z,24352.00
2023-03-20T08:17:18.673Z,19808.00
2023-03-20T08:18:15.429Z,18304.00
2023-03-20T08:19:15.413Z,20320.00
2023-03-20T08:20:15.406Z,24096.00
2023-03-20T08:21:15.394Z,23840.00
2023-03-20T08:22:15.384Z,20736.00
2023-03-20T08:23:15.373Z,17280.00
2023-03-20T08:25:15.350Z,13944.00
2023-03-20T08:26:15.350Z,13152.00
2023-03-20T08:27:15.335Z,12728.00
2023-03-20T08:28:15.320Z,12592.00
2023-03-20T08:29:15.310Z,12604.00
2023-03-20T08:30:15.300Z,12344.00
2023-03-20T08:32:15.278Z,13544.00
2023-03-20T08:34:15.260Z,15616.00
2023-03-20T08:35:31.792Z,14312.00
2023-03-20T08:36:16.347Z,12232.00
2023-03-20T08:37:15.226Z,12576.00
2023-03-20T08:39:15.207Z,11844.00
2023-03-20T08:42:15.173Z,12492.00
2023-03-20T08:43:15.164Z,12136.00
2023-03-20T08:45:15.148Z,12552.00
2023-03-20T08:46:15.256Z,11808.00
2023-03-20T08:47:15.123Z,12980.00
2023-03-20T08:48:15.109Z,12780.00
2023-03-20T08:49:15.116Z,11996.00
2023-03-20T08:50:15.090Z,11344.00
2023-03-20T08:51:15.090Z,11844.00
2023-03-20T08:52:15.078Z,12224.00
2023-03-20T08:53:15.071Z,12180.00
2023-03-20T08:54:15.057Z,12112.00
2023-03-20T08:55:15.029Z,11960.00
2023-03-20T08:56:15.021Z,11664.00
2023-03-20T08:57:15.018Z,11368.00
2023-03-20T08:58:15.001Z,10948.00
2023-03-20T08:59:14.998Z,10692.00
2023-03-20T09:00:14.980Z,10372.00
2023-03-20T09:01:14.969Z,10060.00
2023-03-20T09:02:15.090Z,9700.00
2023-03-20T09:03:15.109Z,9456.00
2023-03-20T09:04:14.933Z,9236.00
2023-03-20T09:05:14.948Z,9060.00
2023-03-20T09:06:14.913Z,8904.00
2023-03-20T09:07:14.901Z,8708.00
2023-03-20T09:08:14.889Z,8572.00
2023-03-20T09:09:14.882Z,8436.00
2023-03-20T09:10:14.869Z,8280.00
2023-03-20T09:11:14.861Z,8208.00
2023-03-20T09:12:14.849Z,8196.00
2023-03-20T09:13:26.575Z,8244.00
2023-03-20T09:15:14.817Z,8508.00
2023-03-20T09:16:15.140Z,8728.00
2023-03-20T09:17:14.820Z,8960.00
2023-03-20T09:18:14.784Z,9132.00
2023-03-20T09:19:14.775Z,9224.00
2023-03-20T09:20:14.762Z,9256.00
2023-03-20T09:21:14.778Z,9176.00
2023-03-20T09:22:14.752Z,9064.00
2023-03-20T09:23:14.734Z,8888.00
2023-03-20T09:24:14.720Z,8676.00
2023-03-20T09:25:14.710Z,8472.00
2023-03-20T09:26:14.703Z,8324.00
2023-03-20T09:27:14.693Z,8280.00
2023-03-20T09:29:14.669Z,8132.00
2023-03-20T09:30:14.657Z,8076.00
2023-03-20T09:31:14.723Z,8068.00
2023-03-20T09:32:14.634Z,8220.00
2023-03-20T09:33:14.663Z,8340.00
2023-03-20T09:34:14.614Z,8368.00
2023-03-20T09:35:14.613Z,8368.00
2023-03-20T09:36:14.614Z,8376.00
2023-03-20T09:37:14.604Z,8404.00
2023-03-20T09:38:14.571Z,8408.00
2023-03-20T09:40:14.551Z,8436.00
2023-03-20T09:41:14.540Z,8568.00
2023-03-20T09:42:14.529Z,8748.00
2023-03-20T09:43:14.529Z,8884.00
2023-03-20T09:44:14.517Z,9056.00
2023-03-20T09:45:14.498Z,9196.00
2023-03-20T09:46:14.549Z,9352.00
2023-03-20T09:47:20.830Z,9484.00
2023-03-20T09:48:15.496Z,9580.00
2023-03-20T09:50:14.468Z,9716.00
2023-03-20T09:51:14.435Z,9676.00
2023-03-20T09:52:14.421Z,9768.00
2023-03-20T09:53:14.432Z,9840.00
2023-03-20T09:54:14.400Z,9888.00
2023-03-20T09:55:14.538Z,10072.00
2023-03-20T09:56:14.379Z,10320.00
2023-03-20T09:57:14.369Z,10532.00
2023-03-20T09:58:14.362Z,10660.00
2023-03-20T09:59:14.350Z,10780.00
2023-03-20T10:00:14.341Z,10876.00
2023-03-20T10:02:14.351Z,11108.00
2023-03-20T10:03:14.310Z,11232.00
2023-03-20T10:04:14.364Z,11264.00
2023-03-20T10:05:14.285Z,11160.00
2023-03-20T10:06:14.276Z,10996.00
2023-03-20T10:07:14.263Z,10852.00
2023-03-20T10:08:16.180Z,10728.00
2023-03-20T10:09:14.262Z,10572.00
2023-03-20T10:10:14.228Z,10528.00
2023-03-20T10:11:14.225Z,10556.00
2023-03-20T10:12:14.206Z,10652.00
2023-03-20T10:13:14.198Z,10828.00
2023-03-20T10:14:15.644Z,11024.00
2023-03-20T10:15:14.177Z,11236.00
2023-03-20T10:16:14.225Z,11432.00
2023-03-20T10:17:14.166Z,11748.00
2023-03-20T10:18:14.145Z,12192.00
2023-03-20T10:19:14.133Z,12612.00
2023-03-20T10:20:14.120Z,12824.00
2023-03-20T10:21:14.116Z,13004.00
2023-03-20T10:23:14.093Z,13016.00
2023-03-20T10:25:14.090Z,12676.00
2023-03-20T10:26:14.065Z,12540.00
2023-03-20T10:27:14.055Z,12424.00
2023-03-20T10:28:14.046Z,12324.00
2023-03-20T10:29:14.028Z,12080.00
2023-03-20T10:30:14.033Z,11960.00
2023-03-20T10:31:14.059Z,11720.00
2023-03-20T10:32:13.997Z,11440.00
2023-03-20T10:33:14.030Z,11176.00
2023-03-20T10:34:13.990Z,10988.00
2023-03-20T10:35:13.972Z,10924.00
2023-03-20T10:37:16.748Z,10980.00
2023-03-20T10:38:13.939Z,11140.00
2023-03-20T10:39:13.924Z,11324.00
2023-03-20T10:40:13.911Z,11636.00
2023-03-20T10:41:13.922Z,11912.00
2023-03-20T10:42:13.886Z,12264.00
2023-03-20T10:44:13.871Z,12632.00
2023-03-20T10:45:13.858Z,12556.00
2023-03-20T10:46:13.848Z,12584.00
2023-03-20T10:47:13.887Z,12608.00
2023-03-20T10:49:13.820Z,12800.00
2023-03-20T10:50:13.803Z,12880.00
2023-03-20T10:51:13.794Z,12952.00
2023-03-20T10:52:13.778Z,12952.00
2023-03-20T10:53:13.782Z,12952.00
2023-03-20T10:54:13.764Z,13096.00
2023-03-20T10:55:13.751Z,13296.00
2023-03-20T10:56:16.792Z,13440.00
2023-03-20T10:57:13.754Z,13444.00
2023-03-20T10:58:13.718Z,13412.00
2023-03-20T10:59:13.709Z,13492.00
2023-03-20T11:00:13.704Z,13696.00
2023-03-20T11:01:13.755Z,14044.00
2023-03-20T11:02:13.677Z,14492.00
2023-03-20T11:04:13.726Z,16352.00
2023-03-20T11:06:13.639Z,18944.00
2023-03-20T11:08:13.617Z,19744.00
2023-03-20T11:09:13.610Z,18464.00
2023-03-20T11:10:13.596Z,18144.00
2023-03-20T11:12:13.573Z,21568.00
2023-03-20T11:13:13.582Z,23360.00
2023-03-20T11:14:13.551Z,22976.00
2023-03-20T11:15:13.542Z,21024.00
2023-03-20T11:16:13.652Z,21600.00
2023-03-20T11:17:13.523Z,22272.00
2023-03-20T11:18:13.510Z,23040.00
2023-03-20T11:19:13.499Z,21920.00
2023-03-20T11:20:13.489Z,19872.00
2023-03-20T11:21:13.478Z,17472.00
2023-03-20T11:23:13.457Z,13568.00
2023-03-20T11:25:13.437Z,15188.00
2023-03-20T11:26:13.424Z,15808.00
2023-03-20T11:28:13.404Z,16608.00
2023-03-20T11:29:13.414Z,17696.00
2023-03-20T11:31:13.375Z,18144.00
2023-03-20T11:32:13.373Z,17280.00
2023-03-20T11:33:13.370Z,17408.00
2023-03-20T11:34:13.340Z,17408.00
2023-03-20T11:35:13.333Z,17344.00
2023-03-20T11:36:13.368Z,17856.00
2023-03-20T11:38:13.295Z,18656.00
2023-03-20T11:39:13.283Z,20064.00
2023-03-20T11:40:13.272Z,20352.00
2023-03-20T11:41:13.262Z,20768.00
2023-03-20T11:43:13.243Z,21504.00
2023-03-20T11:45:13.247Z,18368.00
2023-03-20T11:46:13.310Z,17856.00
2023-03-20T11:47:13.202Z,17696.00
2023-03-20T11:48:13.188Z,16640.00
2023-03-20T11:49:13.182Z,16032.00
2023-03-20T11:50:13.164Z,15276.00
2023-03-20T11:51:13.158Z,15744.00
2023-03-20T11:52:13.149Z,15648.00
2023-03-20T11:53:13.135Z,15320.00
2023-03-20T11:54:13.125Z,15248.00
2023-03-20T11:55:13.115Z,15000.00
2023-03-20T11:57:13.096Z,13668.00
2023-03-20T11:58:13.087Z,12884.00
2023-03-20T11:59:13.084Z,11932.00
2023-03-20T12:02:25.994Z,13804.00
2023-03-20T12:03:25.938Z,14284.00
2023-03-20T12:04:25.893Z,13984.00
2023-03-20T12:06:25.880Z,14328.00
2023-03-20T12:07:25.860Z,14936.00
2023-03-20T12:08:25.853Z,15236.00
2023-03-20T12:09:25.840Z,14096.00
2023-03-20T12:10:25.830Z,14616.00
2023-03-20T12:11:25.819Z,15268.00
2023-03-20T12:13:25.801Z,15144.00
2023-03-20T12:14:25.789Z,14152.00
2023-03-20T12:15:25.808Z,13828.00
2023-03-20T12:16:25.785Z,13748.00
2023-03-20T12:17:25.757Z,12796.00
2023-03-20T12:19:25.737Z,11704.00
2023-03-20T12:20:25.727Z,11396.00
2023-03-20T12:21:25.725Z,11024.00
2023-03-20T12:22:25.719Z,10284.00
2023-03-20T12:23:25.693Z,9896.00
2023-03-20T12:24:25.687Z,10468.00
2023-03-20T12:25:25.673Z,10924.00
2023-03-20T12:26:25.675Z,11868.00
2023-03-20T12:27:25.665Z,11844.00
2023-03-20T12:28:25.655Z,11836.00
2023-03-20T12:29:25.629Z,12280.00
2023-03-20T12:31:25.695Z,11908.00
2023-03-20T12:32:25.599Z,11348.00
2023-03-20T12:33:25.588Z,11164.00
2023-03-20T12:34:25.675Z,11020.00
2023-03-20T12:35:25.565Z,10748.00
2023-03-20T12:36:25.559Z,10548.00
2023-03-20T12:37:25.545Z,10216.00
2023-03-20T12:38:25.542Z,10036.00
2023-03-20T12:39:25.536Z,10408.00
2023-03-20T12:41:25.504Z,12608.00
2023-03-20T12:42:25.496Z,13296.00
2023-03-20T12:43:25.485Z,13060.00
2023-03-20T12:44:25.476Z,13256.00
2023-03-20T12:45:25.463Z,14376.00
2023-03-20T12:46:25.469Z,14704.00
2023-03-20T12:47:25.439Z,14772.00
2023-03-20T12:48:25.430Z,15680.00
2023-03-20T12:49:25.418Z,16448.00
2023-03-20T12:50:25.431Z,17408.00
2023-03-20T12:51:25.402Z,18336.00
2023-03-20T12:52:25.416Z,17248.00
2023-03-20T12:53:25.375Z,15288.00
2023-03-20T12:54:25.370Z,14140.00
2023-03-20T12:55:25.353Z,14484.00
2023-03-20T12:56:25.356Z,16224.00
2023-03-20T12:57:25.331Z,16448.00
2023-03-20T12:58:25.325Z,16448.00
2023-03-20T12:59:25.320Z,16384.00
2023-03-20T13:00:25.303Z,16352.00
2023-03-20T13:01:25.300Z,17152.00
2023-03-20T13:02:25.373Z,17504.00
2023-03-20T13:03:25.271Z,19488.00
2023-03-20T13:04:25.262Z,22784.00
2023-03-20T13:05:25.247Z,19648.00
2023-03-20T13:06:25.260Z,19008.00
2023-03-20T13:07:25.227Z,20096.00
2023-03-20T13:08:25.229Z,20736.00
2023-03-20T13:09:25.206Z,18208.00
2023-03-20T13:10:25.195Z,16672.00
2023-03-20T13:11:25.184Z,15056.00
2023-03-20T13:13:25.164Z,13260.00
2023-03-20T13:14:25.158Z,12468.00
2023-03-20T13:15:25.139Z,11800.00
2023-03-20T13:16:25.161Z,11260.00
2023-03-20T13:17:25.126Z,10968.00
2023-03-20T13:18:25.119Z,10940.00
2023-03-20T13:20:25.086Z,11236.00
2023-03-20T13:21:25.077Z,11388.00
2023-03-20T13:22:25.204Z,11536.00
2023-03-20T13:23:25.070Z,11484.00
2023-03-20T13:24:25.046Z,11784.00
2023-03-20T13:28:25.002Z,11164.00
2023-03-20T13:29:27.538Z,11352.00
2023-03-20T13:30:24.986Z,11764.00
2023-03-20T13:31:25.015Z,12200.00
2023-03-20T13:32:24.959Z,13072.00
2023-03-20T13:33:24.968Z,14616.00
2023-03-20T13:34:24.942Z,16512.00
2023-03-20T13:35:24.938Z,17440.00
2023-03-20T13:36:24.921Z,16768.00
2023-03-20T13:37:24.941Z,16256.00
2023-03-20T13:38:24.918Z,15904.00
2023-03-20T13:39:24.885Z,15112.00
2023-03-20T13:40:24.874Z,14024.00
2023-03-20T13:41:24.865Z,12672.00
2023-03-20T13:42:24.854Z,11668.00
2023-03-20T13:43:24.844Z,10604.00
2023-03-20T13:44:24.834Z,9924.00
2023-03-20T13:45:24.821Z,9572.00
2023-03-20T13:46:24.854Z,8996.00
2023-03-20T13:47:24.799Z,8352.00
2023-03-20T13:48:24.792Z,7704.00
2023-03-20T13:49:24.778Z,7484.00
2023-03-20T13:50:24.766Z,7380.00
2023-03-20T13:51:24.761Z,7096.00
2023-03-20T13:52:24.747Z,7104.00
2023-03-20T13:53:24.737Z,7408.00
2023-03-20T13:54:24.751Z,7792.00
2023-03-20T13:55:24.717Z,8248.00
2023-03-20T13:56:24.705Z,8416.00
2023-03-20T13:57:24.693Z,8500.00
2023-03-20T13:59:24.672Z,8708.00
2023-03-20T14:00:24.660Z,8848.00
2023-03-20T14:01:24.683Z,8980.00
2023-03-20T14:02:24.642Z,9080.00
2023-03-20T14:03:24.637Z,9244.00
2023-03-20T14:04:24.674Z,9368.00
2023-03-20T14:05:24.606Z,9476.00
2023-03-20T14:06:24.598Z,9800.00
2023-03-20T14:07:24.585Z,9932.00
2023-03-20T14:08:24.576Z,9956.00
2023-03-20T14:09:24.565Z,10224.00
2023-03-20T14:10:24.584Z,10424.00
2023-03-20T14:11:24.544Z,10148.00
2023-03-20T14:13:27.415Z,9252.00
2023-03-20T14:14:24.519Z,9748.00
2023-03-20T14:15:24.500Z,10604.00
2023-03-20T14:17:24.485Z,10920.00
2023-03-20T14:18:24.475Z,9976.00
2023-03-20T14:19:24.457Z,9316.00
2023-03-20T14:20:24.462Z,8568.00
2023-03-20T14:21:24.439Z,8440.00
2023-03-20T14:22:24.425Z,8112.00
2023-03-20T14:24:24.410Z,7528.00
2023-03-20T14:25:24.391Z,7440.00
2023-03-20T14:26:24.407Z,8160.00
2023-03-20T14:27:36.862Z,8536.00
2023-03-20T14:28:24.362Z,8524.00
2023-03-20T14:29:24.350Z,8696.00
2023-03-20T14:30:24.340Z,8952.00
2023-03-20T14:31:24.348Z,9284.00
2023-03-20T14:32:24.318Z,9552.00
2023-03-20T14:33:24.420Z,10456.00
2023-03-20T14:34:24.297Z,12284.00
2023-03-20T14:35:24.286Z,12092.00
2023-03-20T14:36:24.278Z,13868.00
2023-03-20T14:37:24.264Z,13584.00
2023-03-20T14:38:24.256Z,14392.00
2023-03-20T14:39:24.249Z,13416.00
2023-03-20T14:41:24.236Z,12048.00
2023-03-20T14:42:25.068Z,11868.00
2023-03-20T14:43:24.202Z,12000.00
2023-03-20T14:44:24.201Z,12068.00
2023-03-20T14:45:24.183Z,11960.00
2023-03-20T14:47:24.162Z,11812.00
2023-03-20T14:48:24.154Z,12048.00
2023-03-20T14:49:24.138Z,12996.00
2023-03-20T14:50:24.126Z,13984.00
2023-03-20T14:51:24.116Z,13760.00
2023-03-20T14:52:24.109Z,12708.00
2023-03-20T14:53:24.099Z,11596.00
2023-03-20T14:54:24.087Z,11456.00
2023-03-20T14:55:24.073Z,12896.00
2023-03-20T14:57:24.052Z,15680.00
2023-03-20T14:58:24.062Z,15904.00
2023-03-20T14:59:24.032Z,18048.00
2023-03-20T15:00:24.021Z,18368.00
2023-03-20T15:01:24.165Z,18528.00
2023-03-20T15:03:23.988Z,13804.00
2023-03-20T15:04:23.980Z,12448.00
2023-03-20T15:05:23.974Z,11444.00
2023-03-20T15:06:23.956Z,10788.00
2023-03-20T15:07:23.945Z,10044.00
2023-03-20T15:08:23.937Z,9004.00
2023-03-20T15:09:23.923Z,8172.00
2023-03-20T15:10:23.915Z,7616.00
2023-03-20T15:11:23.904Z,7160.00
2023-03-20T15:14:23.890Z,6132.00
2023-03-20T15:15:23.858Z,5792.00
2023-03-20T15:16:23.854Z,5448.00
2023-03-20T15:17:23.861Z,5120.00
2023-03-20T15:18:23.831Z,4872.00
2023-03-20T15:19:23.816Z,4688.00
2023-03-20T15:20:23.808Z,4632.00
2023-03-20T15:21:23.813Z,4588.00
2023-03-20T15:22:23.784Z,4616.00
2023-03-20T15:23:23.775Z,4752.00
2023-03-20T15:24:23.773Z,4948.00
2023-03-20T15:25:23.756Z,5160.00
2023-03-20T15:27:23.735Z,5572.00
2023-03-20T15:28:23.735Z,5740.00
2023-03-20T15:29:23.716Z,5864.00
2023-03-20T15:30:23.732Z,6028.00
2023-03-20T15:31:23.691Z,6032.00
2023-03-20T15:32:23.679Z,6004.00
2023-03-20T15:33:23.675Z,5812.00
2023-03-20T15:34:23.662Z,5980.00
2023-03-20T15:36:23.641Z,5888.00
2023-03-20T15:37:23.657Z,5952.00
2023-03-20T15:38:23.617Z,6240.00
2023-03-20T15:39:23.618Z,6616.00
2023-03-20T15:40:23.600Z,6996.00
2023-03-20T15:41:23.586Z,7188.00
2023-03-20T15:42:23.580Z,7248.00
2023-03-20T15:43:23.567Z,7104.00
2023-03-20T15:44:23.555Z,6844.00
2023-03-20T15:45:23.541Z,6352.00
2023-03-20T15:46:23.549Z,5848.00
2023-03-20T15:47:23.526Z,5392.00
2023-03-20T15:49:23.503Z,4916.00
2023-03-20T15:50:23.517Z,4792.00
2023-03-20T15:51:23.485Z,4680.00
2023-03-20T15:52:23.468Z,4528.00
2023-03-20T15:53:23.460Z,4348.00
2023-03-20T15:54:23.447Z,4160.00
2023-03-20T15:55:23.437Z,4000.00
2023-03-20T15:56:23.425Z,3920.00
2023-03-20T15:57:23.418Z,3872.00
2023-03-20T15:58:23.405Z,3860.00
2023-03-20T16:00:23.385Z,3960.00
2023-03-20T16:01:23.430Z,4004.00
2023-03-20T16:02:23.390Z,3984.00
2023-03-20T16:03:23.377Z,3824.00
2023-03-20T16:05:23.339Z,3376.00
2023-03-20T16:06:23.325Z,3212.00
2023-03-20T16:07:23.313Z,3092.00
2023-03-20T16:08:23.302Z,3000.00
2023-03-20T16:09:23.296Z,2936.00
2023-03-20T16:10:23.280Z,2868.00
2023-03-20T16:11:23.274Z,2804.00
2023-03-20T16:12:23.274Z,2776.00
2023-03-20T16:13:23.251Z,2764.00
2023-03-20T16:14:23.238Z,2760.00
2023-03-20T16:15:23.231Z,2732.00
2023-03-20T16:16:23.288Z,2692.00
2023-03-20T16:17:23.208Z,2620.00
2023-03-20T16:18:23.216Z,2560.00
2023-03-20T16:20:23.175Z,2564.00
2023-03-20T16:21:23.167Z,2500.00
2023-03-20T16:22:23.160Z,2376.00
2023-03-20T16:23:23.145Z,2196.00
2023-03-20T16:24:23.135Z,1976.00
2023-03-20T16:27:23.104Z,1584.00
2023-03-20T16:28:23.097Z,1564.00
2023-03-20T16:29:23.095Z,1528.00
2023-03-20T16:30:23.068Z,1480.00
2023-03-20T16:32:23.048Z,1432.00
2023-03-20T16:33:23.039Z,1444.00
2023-03-20T16:34:23.051Z,1452.00
2023-03-20T16:35:23.018Z,1416.00
2023-03-20T16:37:22.994Z,1308.00
2023-03-20T16:38:22.985Z,1248.00
2023-03-20T16:39:22.975Z,1184.00
2023-03-20T16:40:22.963Z,1104.00
2023-03-20T16:41:22.953Z,1032.00
2023-03-20T16:42:22.950Z,980.00
2023-03-20T16:43:22.941Z,940.00
2023-03-20T16:45:22.912Z,856.00
2023-03-20T16:46:23.012Z,820.00
2023-03-20T16:47:22.895Z,800.00
2023-03-20T16:48:22.876Z,808.00
2023-03-20T16:49:22.868Z,844.00
2023-03-20T16:50:22.880Z,888.00
2023-03-20T16:52:22.833Z,876.00
2023-03-20T16:53:22.858Z,844.00
2023-03-20T16:54:22.842Z,800.00
2023-03-20T16:55:22.863Z,764.00
2023-03-20T16:56:22.823Z,736.00
2023-03-20T16:57:22.785Z,696.00
2023-03-20T16:58:22.771Z,656.00
2023-03-20T17:00:22.790Z,608.00
2023-03-20T17:01:22.743Z,596.00
2023-03-20T17:02:22.787Z,580.00
2023-03-20T17:03:22.733Z,556.00
2023-03-20T17:04:22.744Z,544.00
2023-03-20T17:05:22.703Z,524.00
2023-03-20T17:06:22.710Z,488.00
2023-03-20T17:07:22.681Z,456.00
2023-03-20T17:09:22.666Z,376.00
2023-03-20T17:10:22.647Z,360.00
2023-03-20T17:13:22.616Z,324.00
2023-03-20T17:14:22.609Z,312.00
2023-03-20T17:15:22.592Z,300.00
2023-03-20T17:16:22.629Z,300.00
2023-03-20T17:17:22.579Z,296.00
2023-03-20T17:18:22.730Z,280.00
2023-03-20T17:19:22.557Z,268.00
2023-03-20T17:20:22.553Z,252.00
2023-03-20T17:21:22.552Z,236.00
2023-03-20T17:22:22.537Z,220.00
2023-03-20T17:24:22.502Z,204.00
2023-03-20T17:25:22.495Z,192.00
2023-03-20T17:26:22.488Z,188.00
2023-03-20T17:28:22.474Z,168.00
2023-03-20T17:29:22.446Z,160.00
2023-03-20T17:30:22.481Z,148.00
2023-03-20T17:31:22.502Z,132.00
2023-03-20T17:33:22.524Z,112.00
2023-03-20T17:34:22.399Z,96.00
2023-03-20T17:35:22.405Z,92.00
2023-03-20T17:36:22.381Z,84.00
2023-03-20T17:37:22.369Z,80.00
2023-03-20T17:38:22.378Z,76.00
2023-03-20T17:39:22.375Z,72.00
2023-03-20T17:40:22.346Z,72.00
2023-03-20T17:41:22.322Z,64.00
2023-03-20T17:42:22.325Z,60.00
2023-03-20T17:44:22.302Z,48.00
2023-03-20T17:45:22.302Z,44.00
2023-03-20T17:46:22.371Z,40.00
2023-03-20T17:47:22.259Z,36.00
2023-03-20T17:49:22.242Z,28.00
2023-03-20T17:50:22.238Z,24.00
2023-03-20T17:51:22.225Z,20.00
2023-03-20T17:52:22.213Z,20.00
2023-03-20T17:54:22.209Z,16.00
2023-03-20T17:55:22.375Z,12.00
2023-03-20T17:56:22.166Z,12.00
2023-03-20T17:57:22.154Z,12.00
2023-03-20T17:58:22.142Z,8.00
2023-03-20T18:00:22.192Z,8.00
2023-03-20T18:01:22.238Z,4.00
2023-03-20T18:02:22.101Z,4.00
2023-03-20T18:05:22.152Z,4.00
